createdAt,value
2023-05-19T00:00:17.499Z,23.42
2023-05-19T00:02:44.145Z,23.35
2023-05-19T00:05:10.796Z,23.44
2023-05-19T00:07:37.353Z,23.33
2023-05-19T00:10:03.880Z,23.43
2023-05-19T00:12:30.422Z,23.44
2023-05-19T00:14:57.063Z,23.34
2023-05-19T00:17:23.669Z,23.27
2023-05-19T00:19:50.233Z,23.38
2023-05-19T00:22:16.918Z,23.34
2023-05-19T00:24:43.599Z,23.35
2023-05-19T00:27:10.128Z,23.30
2023-05-19T00:29:36.734Z,23.38
2023-05-19T00:32:03.394Z,23.35
2023-05-19T00:34:31.076Z,23.32
2023-05-19T00:36:57.609Z,23.37
2023-05-19T00:39:24.099Z,23.46
2023-05-19T00:41:50.815Z,23.42
2023-05-19T00:44:17.468Z,23.40
2023-05-19T00:46:44.090Z,23.39
2023-05-19T00:49:10.708Z,23.40
2023-05-19T00:51:37.235Z,23.46
2023-05-19T00:54:03.767Z,23.49
2023-05-19T00:56:30.350Z,23.36
2023-05-19T00:58:56.934Z,23.38
2023-05-19T01:01:23.516Z,23.38
2023-05-19T01:03:50.205Z,23.31
2023-05-19T01:06:16.744Z,23.30
2023-05-19T01:08:43.248Z,23.36
2023-05-19T01:11:09.903Z,23.26
2023-05-19T01:13:36.670Z,23.31
2023-05-19T01:16:03.432Z,23.31
2023-05-19T01:18:30.068Z,23.21
2023-05-19T01:20:56.613Z,23.33
2023-05-19T01:23:23.118Z,23.23
2023-05-19T01:25:49.672Z,23.30
2023-05-19T01:28:16.224Z,23.24
2023-05-19T01:30:42.755Z,23.28
2023-05-19T01:33:09.404Z,23.36
2023-05-19T01:35:35.971Z,23.28
2023-05-19T01:38:02.572Z,23.33
2023-05-19T01:40:29.289Z,23.31
2023-05-19T01:42:57.502Z,23.39
2023-05-19T01:45:24.260Z,23.37
2023-05-19T01:47:50.839Z,23.31
2023-05-19T01:50:17.381Z,23.38
2023-05-19T01:52:43.993Z,23.36
2023-05-19T01:55:10.546Z,23.37
2023-05-19T01:57:37.112Z,23.31
2023-05-19T02:00:03.645Z,23.26
2023-05-19T02:02:30.225Z,23.32
2023-05-19T02:04:56.781Z,23.31
2023-05-19T02:07:23.314Z,23.21
2023-05-19T02:09:49.897Z,23.33
2023-05-19T02:12:16.545Z,23.42
2023-05-19T02:14:43.150Z,23.30
2023-05-19T02:17:09.740Z,23.32
2023-05-19T02:19:36.251Z,23.29
2023-05-19T02:22:02.823Z,23.30
2023-05-19T02:24:29.419Z,23.29
2023-05-19T02:26:55.890Z,23.20
2023-05-19T02:29:22.577Z,23.28
2023-05-19T02:31:49.161Z,23.19
2023-05-19T02:34:15.750Z,23.25
2023-05-19T02:36:42.335Z,23.30
2023-05-19T02:39:08.903Z,23.30
2023-05-19T02:41:35.503Z,23.29
2023-05-19T02:44:02.152Z,23.35
2023-05-19T02:46:28.874Z,23.33
2023-05-19T02:48:55.379Z,23.34
2023-05-19T02:51:21.884Z,23.32
2023-05-19T02:53:48.538Z,23.25
2023-05-19T02:56:15.146Z,23.30
2023-05-19T02:58:41.788Z,23.33
2023-05-19T03:01:08.311Z,23.24
2023-05-19T03:03:35.036Z,23.31
2023-05-19T03:06:01.721Z,23.21
2023-05-19T03:08:28.269Z,23.31
2023-05-19T03:10:54.797Z,23.36
2023-05-19T03:13:21.380Z,23.26
2023-05-19T03:15:50.923Z,23.27
2023-05-19T03:18:17.528Z,23.21
2023-05-19T03:20:44.065Z,23.26
2023-05-19T03:23:12.775Z,23.23
2023-05-19T03:25:39.291Z,23.27
2023-05-19T03:28:05.870Z,23.23
2023-05-19T03:30:32.813Z,23.25
2023-05-19T03:32:59.634Z,23.31
2023-05-19T03:35:26.279Z,23.30
2023-05-19T03:37:52.809Z,23.24
2023-05-19T03:40:19.352Z,23.26
2023-05-19T03:42:45.955Z,23.25
2023-05-19T03:45:12.485Z,23.28
2023-05-19T03:47:39.095Z,23.23
2023-05-19T03:50:05.745Z,23.31
2023-05-19T03:52:32.351Z,23.30
2023-05-19T03:55:01.782Z,23.32
2023-05-19T03:57:28.372Z,23.19
2023-05-19T03:59:54.986Z,23.27
2023-05-19T04:02:21.660Z,23.24
2023-05-19T04:04:48.261Z,23.16
2023-05-19T04:07:14.811Z,23.07
2023-05-19T04:09:41.380Z,23.02
2023-05-19T04:12:07.913Z,23.06
2023-05-19T04:14:34.529Z,23.04
2023-05-19T04:17:01.129Z,22.99
2023-05-19T04:19:27.862Z,23.04
2023-05-19T04:21:54.627Z,23.02
2023-05-19T04:24:21.283Z,23.07
2023-05-19T04:26:48.889Z,23.03
2023-05-19T04:29:15.477Z,23.03
2023-05-19T04:31:42.156Z,23.15
2023-05-19T04:34:08.844Z,23.15
2023-05-19T04:36:35.418Z,23.07
2023-05-19T04:39:01.929Z,23.11
2023-05-19T04:41:28.464Z,23.04
2023-05-19T04:43:55.051Z,23.11
2023-05-19T04:46:21.629Z,23.07
2023-05-19T04:48:51.210Z,23.11
2023-05-19T04:51:17.805Z,23.15
2023-05-19T04:53:44.307Z,23.39
2023-05-19T04:56:10.772Z,23.35
2023-05-19T04:58:37.751Z,23.52
2023-05-19T05:01:05.251Z,23.53
2023-05-19T05:03:31.986Z,23.79
2023-05-19T05:05:58.558Z,23.85
2023-05-19T05:08:28.102Z,23.82
2023-05-19T05:10:57.428Z,23.85
2023-05-19T05:13:24.033Z,23.89
2023-05-19T05:15:50.639Z,23.97
2023-05-19T05:18:17.220Z,23.97
2023-05-19T05:20:43.736Z,23.77
2023-05-19T05:23:10.246Z,23.98
2023-05-19T05:25:36.874Z,23.96
2023-05-19T05:28:03.462Z,23.83
2023-05-19T05:30:30.038Z,23.78
2023-05-19T05:32:56.713Z,23.75
2023-05-19T05:35:23.365Z,23.79
2023-05-19T05:37:49.959Z,23.82
2023-05-19T05:40:16.478Z,23.78
2023-05-19T05:42:43.056Z,23.82
2023-05-19T05:45:09.650Z,23.79
2023-05-19T05:47:36.231Z,23.67
2023-05-19T05:50:02.814Z,23.81
2023-05-19T05:52:29.345Z,23.64
2023-05-19T05:54:55.845Z,23.73
2023-05-19T05:57:22.345Z,23.82
2023-05-19T05:59:48.806Z,23.60
2023-05-19T06:02:15.326Z,23.67
2023-05-19T06:04:41.962Z,23.70
2023-05-19T06:07:08.433Z,23.66
2023-05-19T06:09:34.955Z,23.68
2023-05-19T06:12:01.480Z,23.92
2023-05-19T06:14:27.965Z,23.90
2023-05-19T06:16:54.503Z,24.09
2023-05-19T06:19:21.187Z,23.90
2023-05-19T06:21:47.828Z,23.99
2023-05-19T06:24:14.428Z,24.17
2023-05-19T06:26:40.994Z,24.16
2023-05-19T06:29:07.526Z,24.17
2023-05-19T06:31:34.156Z,24.26
2023-05-19T06:34:00.736Z,24.27
2023-05-19T06:36:27.242Z,24.33
2023-05-19T06:38:53.697Z,24.29
2023-05-19T06:41:23.043Z,24.29
2023-05-19T06:43:49.644Z,24.28
2023-05-19T06:46:16.172Z,24.31
2023-05-19T06:48:42.708Z,24.35
2023-05-19T06:51:09.319Z,24.30
2023-05-19T06:53:35.813Z,24.35
2023-05-19T06:56:02.305Z,24.28
2023-05-19T06:58:28.849Z,24.36
2023-05-19T07:00:55.428Z,24.35
2023-05-19T07:03:21.987Z,24.36
2023-05-19T07:05:48.738Z,24.38
2023-05-19T07:08:15.239Z,24.40
2023-05-19T07:10:41.797Z,24.40
2023-05-19T07:13:08.302Z,24.40
2023-05-19T07:15:34.814Z,24.42
2023-05-19T07:18:01.319Z,24.42
2023-05-19T07:20:27.799Z,24.44
2023-05-19T07:22:54.253Z,24.41
2023-05-19T07:25:20.746Z,24.34
2023-05-19T07:27:47.264Z,24.36
2023-05-19T07:30:13.834Z,24.20
2023-05-19T07:32:40.475Z,24.34
2023-05-19T07:35:07.039Z,24.29
2023-05-19T07:37:33.555Z,24.23
2023-05-19T07:40:00.100Z,24.20
2023-05-19T07:42:26.773Z,24.02
2023-05-19T07:44:53.388Z,24.07
2023-05-19T07:47:20.574Z,24.14
2023-05-19T07:49:48.090Z,23.92
2023-05-19T07:52:15.719Z,23.98
2023-05-19T07:54:42.253Z,23.83
2023-05-19T07:57:10.181Z,23.80
2023-05-19T07:59:36.725Z,23.83
2023-05-19T08:02:03.305Z,23.65
2023-05-19T08:04:29.985Z,23.60
2023-05-19T08:06:56.547Z,23.51
2023-05-19T08:09:23.079Z,23.50
2023-05-19T08:11:52.454Z,23.68
2023-05-19T08:14:18.974Z,23.66
2023-05-19T08:16:45.462Z,23.53
2023-05-19T08:19:12.531Z,23.64
2023-05-19T08:21:39.179Z,23.68
2023-05-19T08:24:05.706Z,23.69
2023-05-19T08:26:32.267Z,23.68
2023-05-19T08:28:58.834Z,23.71
2023-05-19T08:31:25.517Z,23.54
2023-05-19T08:33:52.113Z,23.51
2023-05-19T08:36:18.613Z,23.58
2023-05-19T08:38:45.165Z,23.43
2023-05-19T08:41:11.705Z,23.50
2023-05-19T08:43:38.343Z,23.40
2023-05-19T08:46:04.829Z,23.43
2023-05-19T08:48:31.378Z,23.45
2023-05-19T08:50:57.930Z,23.47
2023-05-19T08:53:33.668Z,23.26
2023-05-19T08:56:00.815Z,23.35
2023-05-19T08:58:28.734Z,23.48
2023-05-19T09:00:55.488Z,23.51
2023-05-19T09:03:23.857Z,23.40
2023-05-19T09:05:50.893Z,23.46
2023-05-19T09:08:17.499Z,23.60
2023-05-19T09:10:44.074Z,23.48
2023-05-19T09:13:10.632Z,23.54
2023-05-19T09:15:37.171Z,23.42
2023-05-19T09:18:03.797Z,23.42
2023-05-19T09:20:30.377Z,23.59
2023-05-19T09:22:56.922Z,23.54
2023-05-19T09:25:23.504Z,23.33
2023-05-19T09:27:50.055Z,23.41
2023-05-19T09:30:16.652Z,23.26
2023-05-19T09:32:43.931Z,23.38
2023-05-19T09:35:10.674Z,23.31
2023-05-19T09:37:37.233Z,23.27
2023-05-19T09:40:03.821Z,23.24
2023-05-19T09:42:30.377Z,23.30
2023-05-19T09:44:56.892Z,23.50
2023-05-19T09:47:23.508Z,23.58
2023-05-19T09:49:50.071Z,23.44
2023-05-19T09:52:16.674Z,23.19
2023-05-19T09:54:43.199Z,23.45
2023-05-19T09:57:09.681Z,23.36
2023-05-19T09:59:36.175Z,23.45
2023-05-19T10:02:03.123Z,23.38
2023-05-19T10:04:29.946Z,23.43
2023-05-19T10:06:56.508Z,23.31
2023-05-19T10:09:23.072Z,23.38
2023-05-19T10:11:49.641Z,23.40
2023-05-19T10:14:16.146Z,23.36
2023-05-19T10:16:42.776Z,23.50
2023-05-19T10:19:09.410Z,23.47
2023-05-19T10:21:35.979Z,23.51
2023-05-19T10:24:02.505Z,23.45
2023-05-19T10:26:29.047Z,23.48
2023-05-19T10:28:55.599Z,23.74
2023-05-19T10:31:22.189Z,23.79
2023-05-19T10:33:48.764Z,23.82
2023-05-19T10:36:15.264Z,23.90
2023-05-19T10:38:41.838Z,23.91
2023-05-19T10:41:08.848Z,24.00
2023-05-19T10:43:35.442Z,23.97
2023-05-19T10:46:02.090Z,23.98
2023-05-19T10:48:28.634Z,24.01
2023-05-19T10:50:55.148Z,24.04
2023-05-19T10:53:21.684Z,24.01
2023-05-19T10:55:48.202Z,24.03
2023-05-19T10:58:14.780Z,24.08
2023-05-19T11:00:41.366Z,24.06
2023-05-19T11:03:07.953Z,24.08
2023-05-19T11:05:34.693Z,24.11
2023-05-19T11:08:01.417Z,24.12
2023-05-19T11:10:27.999Z,24.14
2023-05-19T11:12:54.539Z,24.13
2023-05-19T11:15:20.992Z,24.20
2023-05-19T11:17:47.518Z,24.18
2023-05-19T11:20:14.216Z,24.27
2023-05-19T11:22:40.733Z,24.24
2023-05-19T11:25:09.995Z,24.25
2023-05-19T11:27:36.568Z,24.24
2023-05-19T11:30:03.115Z,24.14
2023-05-19T11:32:29.788Z,24.23
2023-05-19T11:34:56.458Z,24.26
2023-05-19T11:37:22.939Z,24.22
2023-05-19T11:39:49.474Z,24.35
2023-05-19T11:42:15.982Z,24.38
2023-05-19T11:44:42.501Z,24.34
2023-05-19T11:47:09.058Z,24.43
2023-05-19T11:49:35.625Z,24.38
2023-05-19T11:52:02.173Z,24.43
2023-05-19T11:54:28.709Z,24.33
2023-05-19T11:56:55.761Z,24.34
2023-05-19T11:59:22.296Z,24.36
2023-05-19T12:01:48.816Z,24.40
2023-05-19T12:04:15.376Z,24.38
2023-05-19T12:06:41.971Z,24.36
2023-05-19T12:09:08.608Z,24.41
2023-05-19T12:11:35.173Z,24.44
2023-05-19T12:14:01.702Z,24.40
2023-05-19T12:16:28.229Z,24.43
2023-05-19T12:18:54.860Z,24.59
2023-05-19T12:21:21.453Z,24.62
2023-05-19T12:23:47.925Z,24.59
2023-05-19T12:26:14.456Z,24.60
2023-05-19T12:28:40.929Z,24.68
2023-05-19T12:31:07.481Z,24.71
2023-05-19T12:33:35.605Z,24.76
2023-05-19T12:36:02.523Z,24.79
2023-05-19T12:38:29.093Z,24.80
2023-05-19T12:40:55.673Z,24.74
2023-05-19T12:43:22.259Z,24.73
2023-05-19T12:45:48.929Z,24.77
2023-05-19T12:48:15.452Z,24.80
2023-05-19T12:50:42.124Z,24.94
2023-05-19T12:53:08.745Z,24.89
2023-05-19T12:55:35.250Z,24.90
2023-05-19T12:58:01.728Z,24.91
2023-05-19T13:00:28.664Z,24.93
2023-05-19T13:02:55.716Z,24.90
2023-05-19T13:05:22.388Z,24.92
2023-05-19T13:07:48.832Z,25.00
2023-05-19T13:10:15.284Z,24.97
2023-05-19T13:12:41.784Z,25.03
2023-05-19T13:15:08.361Z,24.91
2023-05-19T13:17:34.983Z,24.88
2023-05-19T13:20:01.493Z,24.95
2023-05-19T13:22:28.063Z,24.97
2023-05-19T13:24:54.569Z,24.98
2023-05-19T13:27:21.127Z,24.97
2023-05-19T13:29:47.680Z,24.94
2023-05-19T13:32:14.195Z,24.89
2023-05-19T13:34:40.911Z,25.02
2023-05-19T13:37:07.733Z,25.13
2023-05-19T13:39:34.895Z,25.08
2023-05-19T13:42:01.378Z,24.99
2023-05-19T13:44:27.837Z,24.87
2023-05-19T13:46:54.421Z,25.05
2023-05-19T13:49:20.926Z,25.10
2023-05-19T13:51:47.443Z,25.18
2023-05-19T13:54:14.019Z,25.23
2023-05-19T13:56:40.509Z,25.26
2023-05-19T13:59:07.019Z,25.23
2023-05-19T14:01:33.608Z,25.24
2023-05-19T14:04:00.993Z,25.27
2023-05-19T14:06:27.803Z,25.09
2023-05-19T14:08:54.340Z,25.09
2023-05-19T14:11:20.921Z,25.43
2023-05-19T14:13:47.416Z,25.32
2023-05-19T14:16:13.980Z,25.16
2023-05-19T14:18:40.665Z,25.10
2023-05-19T14:21:07.230Z,25.31
2023-05-19T14:23:33.778Z,25.17
2023-05-19T14:26:00.267Z,25.21
2023-05-19T14:28:26.842Z,25.10
2023-05-19T14:30:53.333Z,25.15
2023-05-19T14:33:19.825Z,25.19
2023-05-19T14:35:46.301Z,25.23
2023-05-19T14:38:12.841Z,25.28
2023-05-19T14:40:39.415Z,25.12
2023-05-19T14:43:05.939Z,25.12
2023-05-19T14:45:32.455Z,24.92
2023-05-19T14:47:59.024Z,25.06
2023-05-19T14:50:26.877Z,25.03
2023-05-19T14:52:54.340Z,25.02
2023-05-19T14:55:20.915Z,24.97
2023-05-19T14:57:47.477Z,24.89
2023-05-19T15:00:14.028Z,24.84
2023-05-19T15:02:40.624Z,24.86
2023-05-19T15:05:07.188Z,24.80
2023-05-19T15:07:33.745Z,24.82
2023-05-19T15:10:00.245Z,24.77
2023-05-19T15:12:26.753Z,24.86
2023-05-19T15:14:53.302Z,24.83
2023-05-19T15:17:19.851Z,24.77
2023-05-19T15:19:46.391Z,24.77
2023-05-19T15:22:12.875Z,24.79
2023-05-19T15:24:39.340Z,24.76
2023-05-19T15:27:05.873Z,24.75
2023-05-19T15:29:32.409Z,24.69
2023-05-19T15:31:58.935Z,24.71
2023-05-19T15:34:25.533Z,24.71
2023-05-19T15:36:52.100Z,24.70
2023-05-19T15:39:18.671Z,24.71
2023-05-19T15:41:45.213Z,24.79
2023-05-19T15:44:12.068Z,24.62
2023-05-19T15:46:38.619Z,24.67
2023-05-19T15:49:05.264Z,24.63
2023-05-19T15:51:33.045Z,24.71
2023-05-19T15:53:59.986Z,24.55
2023-05-19T15:56:26.507Z,24.51
2023-05-19T15:58:53.056Z,24.54
2023-05-19T16:01:20.206Z,24.58
2023-05-19T16:03:47.135Z,24.55
2023-05-19T16:06:13.821Z,24.60
2023-05-19T16:08:40.325Z,24.54
2023-05-19T16:11:06.834Z,24.50
2023-05-19T16:13:33.395Z,24.52
2023-05-19T16:16:00.001Z,24.53
2023-05-19T16:18:26.631Z,24.44
2023-05-19T16:20:53.178Z,24.43
2023-05-19T16:23:19.682Z,24.45
2023-05-19T16:25:46.175Z,24.43
2023-05-19T16:28:12.693Z,24.40
2023-05-19T16:30:39.161Z,24.42
2023-05-19T16:33:05.770Z,24.38
2023-05-19T16:35:32.437Z,24.37
2023-05-19T16:37:59.027Z,24.41
2023-05-19T16:40:25.602Z,24.45
2023-05-19T16:42:52.064Z,24.48
2023-05-19T16:45:18.582Z,24.52
2023-05-19T16:47:45.131Z,24.34
2023-05-19T16:50:11.681Z,24.36
2023-05-19T16:52:38.388Z,24.45
2023-05-19T16:55:04.888Z,24.39
2023-05-19T16:57:31.395Z,24.38
2023-05-19T16:59:57.977Z,24.27
2023-05-19T17:02:24.485Z,24.35
2023-05-19T17:04:51.119Z,24.33
2023-05-19T17:07:17.656Z,24.30
2023-05-19T17:09:44.154Z,24.25
2023-05-19T17:12:10.635Z,24.39
2023-05-19T17:14:37.204Z,24.34
2023-05-19T17:17:03.814Z,24.37
2023-05-19T17:19:30.413Z,24.35
2023-05-19T17:21:56.977Z,24.36
2023-05-19T17:24:23.523Z,24.44
2023-05-19T17:26:50.508Z,24.25
2023-05-19T17:29:17.333Z,24.27
2023-05-19T17:31:43.872Z,24.31
2023-05-19T17:34:10.476Z,24.27
2023-05-19T17:36:37.105Z,24.31
2023-05-19T17:39:03.610Z,24.23
2023-05-19T17:41:30.063Z,24.22
2023-05-19T17:43:56.569Z,24.20
2023-05-19T17:46:23.080Z,24.15
2023-05-19T17:48:49.570Z,24.18
2023-05-19T17:51:16.122Z,24.17
2023-05-19T17:53:42.709Z,24.14
2023-05-19T17:56:09.217Z,24.12
2023-05-19T17:58:35.768Z,24.12
2023-05-19T18:01:02.312Z,24.12
2023-05-19T18:03:29.127Z,24.10
2023-05-19T18:05:55.757Z,24.11
2023-05-19T18:08:22.308Z,24.15
2023-05-19T18:10:48.887Z,24.17
2023-05-19T18:13:15.384Z,24.23
2023-05-19T18:15:42.040Z,24.28
2023-05-19T18:18:08.624Z,24.26
2023-05-19T18:20:35.453Z,24.25
2023-05-19T18:23:02.436Z,24.27
2023-05-19T18:25:29.071Z,24.29
2023-05-19T18:27:55.713Z,24.24
2023-05-19T18:30:22.244Z,24.25
2023-05-19T18:32:48.828Z,24.30
2023-05-19T18:35:15.375Z,24.27
2023-05-19T18:37:41.877Z,24.29
2023-05-19T18:40:08.432Z,24.30
2023-05-19T18:42:35.047Z,24.32
2023-05-19T18:45:01.535Z,24.28
2023-05-19T18:47:28.074Z,24.20
2023-05-19T18:49:54.644Z,24.21
2023-05-19T18:52:21.259Z,24.27
2023-05-19T18:54:47.792Z,24.25
2023-05-19T18:57:14.301Z,24.24
2023-05-19T18:59:40.781Z,24.22
2023-05-19T19:02:07.467Z,24.30
2023-05-19T19:04:34.010Z,24.29
2023-05-19T19:07:00.547Z,24.25
2023-05-19T19:09:27.043Z,24.01
2023-05-19T19:11:53.599Z,24.00
2023-05-19T19:14:20.202Z,23.96
2023-05-19T19:16:46.794Z,23.78
2023-05-19T19:19:13.454Z,23.74
2023-05-19T19:21:40.118Z,23.94
2023-05-19T19:24:06.679Z,23.97
2023-05-19T19:26:33.198Z,24.14
2023-05-19T19:28:59.671Z,23.94
2023-05-19T19:31:26.291Z,23.91
2023-05-19T19:33:52.780Z,23.94
2023-05-19T19:36:19.343Z,23.71
2023-05-19T19:38:45.904Z,23.74
2023-05-19T19:41:12.431Z,23.66
2023-05-19T19:43:39.040Z,23.66
2023-05-19T19:46:05.611Z,23.54
2023-05-19T19:48:32.135Z,23.58
2023-05-19T19:50:58.723Z,23.67
2023-05-19T19:53:25.208Z,23.69
2023-05-19T19:55:51.763Z,23.57
2023-05-19T19:58:18.286Z,23.55
2023-05-19T20:00:44.852Z,23.59
2023-05-19T20:03:11.503Z,23.60
2023-05-19T20:05:38.006Z,23.53
2023-05-19T20:08:04.552Z,23.65
2023-05-19T20:10:31.128Z,23.63
2023-05-19T20:12:57.765Z,24.05
2023-05-19T20:15:24.341Z,24.14
2023-05-19T20:17:50.962Z,24.11
2023-05-19T20:20:17.571Z,24.09
2023-05-19T20:22:44.170Z,24.19
2023-05-19T20:25:10.766Z,24.22
2023-05-19T20:27:37.337Z,24.07
2023-05-19T20:30:03.983Z,24.06
2023-05-19T20:32:30.610Z,24.10
2023-05-19T20:34:57.180Z,24.17
2023-05-19T20:37:23.764Z,24.23
2023-05-19T20:39:50.372Z,24.13
2023-05-19T20:42:16.926Z,24.11
2023-05-19T20:44:43.649Z,24.20
2023-05-19T20:47:10.318Z,24.11
2023-05-19T20:49:36.933Z,24.03
2023-05-19T20:52:03.531Z,23.78
2023-05-19T20:54:30.123Z,23.85
2023-05-19T20:56:56.740Z,23.71
2023-05-19T20:59:23.337Z,23.76
2023-05-19T21:01:49.977Z,23.71
2023-05-19T21:04:16.587Z,23.68
2023-05-19T21:06:43.237Z,23.65
2023-05-19T21:09:09.885Z,23.64
2023-05-19T21:11:36.491Z,23.61
2023-05-19T21:14:03.124Z,23.59
2023-05-19T21:16:29.812Z,23.63
2023-05-19T21:18:56.483Z,23.56
2023-05-19T21:21:23.109Z,23.56
2023-05-19T21:23:49.688Z,23.65
2023-05-19T21:26:16.229Z,23.62
2023-05-19T21:28:42.738Z,23.68
2023-05-19T21:31:09.333Z,23.58
2023-05-19T21:33:35.927Z,23.62
2023-05-19T21:36:02.488Z,23.62
2023-05-19T21:38:29.134Z,23.55
2023-05-19T21:40:55.730Z,23.51
2023-05-19T21:43:22.330Z,23.45
2023-05-19T21:45:48.941Z,23.50
2023-05-19T21:48:15.538Z,23.54
2023-05-19T21:50:42.075Z,23.49
2023-05-19T21:53:08.582Z,23.48
2023-05-19T21:55:35.182Z,23.51
2023-05-19T21:58:02.723Z,23.63
2023-05-19T22:00:29.707Z,23.68
2023-05-19T22:02:56.534Z,23.57
2023-05-19T22:05:23.253Z,23.53
2023-05-19T22:07:49.866Z,23.59
2023-05-19T22:10:16.397Z,23.60
2023-05-19T22:12:42.921Z,23.51
2023-05-19T22:15:09.514Z,23.54
2023-05-19T22:17:36.102Z,23.63
2023-05-19T22:20:02.740Z,23.56
2023-05-19T22:22:29.288Z,23.57
2023-05-19T22:24:55.886Z,23.56
2023-05-19T22:27:22.423Z,23.59
2023-05-19T22:29:48.996Z,23.57
2023-05-19T22:32:15.607Z,23.57
2023-05-19T22:34:42.232Z,23.56
2023-05-19T22:37:08.839Z,23.68
2023-05-19T22:39:35.434Z,23.71
2023-05-19T22:42:01.964Z,23.65
2023-05-19T22:44:28.558Z,23.63
2023-05-19T22:46:55.100Z,23.61
2023-05-19T22:49:21.690Z,23.66
2023-05-19T22:51:48.267Z,23.53
2023-05-19T22:54:14.874Z,23.49
2023-05-19T22:56:41.878Z,23.49
2023-05-19T22:59:09.255Z,23.45
2023-05-19T23:01:35.831Z,23.51
2023-05-19T23:04:02.516Z,23.49
2023-05-19T23:06:29.144Z,23.58
2023-05-19T23:08:55.746Z,23.58
2023-05-19T23:11:22.336Z,23.52
2023-05-19T23:13:48.924Z,23.46
2023-05-19T23:16:15.436Z,23.51
2023-05-19T23:18:42.102Z,23.54
2023-05-19T23:21:08.669Z,23.51
2023-05-19T23:23:35.203Z,23.45
2023-05-19T23:26:01.812Z,23.51
2023-05-19T23:28:28.409Z,23.53
2023-05-19T23:30:55.047Z,23.46
2023-05-19T23:33:21.659Z,23.41
2023-05-19T23:35:48.222Z,23.44
2023-05-19T23:38:14.837Z,23.37
2023-05-19T23:40:41.392Z,23.51
2023-05-19T23:43:07.966Z,23.50
2023-05-19T23:45:34.693Z,23.46
2023-05-19T23:48:01.525Z,23.48
2023-05-19T23:50:28.195Z,23.39
2023-05-19T23:52:54.813Z,23.42
2023-05-19T23:55:21.399Z,23.35
2023-05-19T23:57:47.991Z,23.54
